Time;durP1;ratioP1;P1;durP2;ratioP2;P2;SDS_P1;SDS_P2;PMS_P1;PMS_P2;Temp;Humidity;BMP_temperature;BMP_pressure;BME280_temperature;BME280_humidity;BME280_pressure;Samples;Min_cycle;Max_cycle;Signal;HPM_P1;HPM_P2
2023/09/09 00:00:51;;;;;;;8.65;6.30;;;19.70;99.90;;;;;;5134477;27;20848;-78
2023/09/09 00:03:37;;;;;;;8.55;6.45;;;19.70;99.90;;;;;;5135085;27;20462;-79
2023/09/09 00:06:23;;;;;;;10.25;6.85;;;19.70;99.90;;;;;;5116719;27;20057;-78
2023/09/09 00:09:09;;;;;;;9.00;6.15;;;19.60;99.90;;;;;;5134943;27;20154;-72
2023/09/09 00:11:56;;;;;;;7.97;6.15;;;19.60;99.90;;;;;;5134158;27;20043;-76
2023/09/09 00:14:42;;;;;;;9.50;6.28;;;19.60;99.90;;;;;;5133988;27;20051;-72
2023/09/09 00:17:28;;;;;;;7.80;6.07;;;19.60;99.90;;;;;;5134547;27;20047;-73
2023/09/09 00:20:14;;;;;;;10.05;6.60;;;19.60;99.90;;;;;;5134056;27;20433;-71
2023/09/09 00:23:07;;;;;;;7.85;5.97;;;19.50;99.90;;;;;;5119023;27;20043;-71
2023/09/09 00:25:53;;;;;;;9.93;6.30;;;19.50;99.90;;;;;;5133625;27;20061;-70
2023/09/09 00:28:39;;;;;;;9.63;6.25;;;19.40;99.90;;;;;;5134215;27;20050;-71
2023/09/09 00:31:25;;;;;;;9.18;6.40;;;19.40;99.90;;;;;;5115239;27;20043;-71
2023/09/09 00:34:11;;;;;;;8.68;6.10;;;19.40;99.90;;;;;;5134259;27;20047;-71
2023/09/09 00:36:57;;;;;;;16.20;6.20;;;19.40;99.90;;;;;;5133655;27;20047;-72
2023/09/09 00:39:43;;;;;;;9.40;6.10;;;19.40;99.90;;;;;;5118792;27;20410;-70
2023/09/09 00:42:29;;;;;;;9.05;6.25;;;19.40;99.90;;;;;;5133038;27;20057;-73
2023/09/09 00:45:16;;;;;;;9.35;6.95;;;19.40;99.90;;;;;;5132840;27;20051;-78
2023/09/09 00:48:02;;;;;;;12.25;6.55;;;19.40;99.90;;;;;;5134593;27;20112;-83
2023/09/09 00:50:48;;;;;;;12.13;7.25;;;19.40;99.90;;;;;;5115177;27;20539;-75
2023/09/09 00:53:34;;;;;;;10.88;7.03;;;19.40;99.90;;;;;;5114647;27;20055;-75
2023/09/09 00:56:20;;;;;;;9.27;6.72;;;19.30;99.90;;;;;;5133636;27;20479;-73
2023/09/09 00:59:07;;;;;;;10.52;5.97;;;19.30;99.90;;;;;;5133229;27;20485;-75
2023/09/09 01:01:53;;;;;;;9.93;5.93;;;19.20;99.90;;;;;;5118516;27;20051;-75
2023/09/09 01:04:39;;;;;;;8.88;6.07;;;19.20;99.90;;;;;;5133361;27;20054;-73
2023/09/09 01:07:27;;;;;;;8.70;6.13;;;19.20;99.90;;;;;;5118307;27;20075;-78
2023/09/09 01:10:15;;;;;;;12.80;7.68;;;19.20;99.90;;;;;;5133194;27;20096;-82
2023/09/09 01:13:01;;;;;;;12.00;6.65;;;19.10;99.90;;;;;;5133417;27;20047;-72
2023/09/09 01:15:47;;;;;;;8.15;6.28;;;19.10;99.90;;;;;;5132524;27;20058;-74
2023/09/09 01:18:35;;;;;;;8.52;6.43;;;19.00;99.90;;;;;;5133050;27;20063;-73
2023/09/09 01:21:23;;;;;;;12.65;8.18;;;19.00;99.90;;;;;;5132964;27;20082;-79
2023/09/09 01:24:16;;;;;;;11.98;7.05;;;18.90;99.90;;;;;;5117887;27;20121;-74
2023/09/09 01:27:02;;;;;;;12.23;6.55;;;19.00;99.90;;;;;;5133840;27;20053;-82
2023/09/09 01:29:48;;;;;;;8.48;6.95;;;19.00;99.90;;;;;;5135068;27;20137;-82
2023/09/09 01:32:34;;;;;;;9.05;6.80;;;18.90;99.90;;;;;;5138638;27;20051;-80
2023/09/09 01:35:20;;;;;;;10.18;7.25;;;18.90;99.90;;;;;;5115234;27;20047;-81
2023/09/09 01:38:06;;;;;;;9.55;7.82;;;18.90;99.90;;;;;;5132516;27;20043;-80
2023/09/09 01:40:52;;;;;;;13.38;8.77;;;18.90;99.90;;;;;;5114584;27;20145;-85
2023/09/09 01:43:38;;;;;;;12.23;8.70;;;18.80;99.90;;;;;;5115664;27;20043;-83
2023/09/09 01:46:24;;;;;;;9.45;7.53;;;18.80;99.90;;;;;;5138748;27;20039;-85
2023/09/09 01:49:10;;;;;;;10.63;8.20;;;18.70;99.90;;;;;;5140572;27;20054;-86
2023/09/09 01:51:56;;;;;;;10.02;8.10;;;18.70;99.90;;;;;;5134500;27;20088;-84
2023/09/09 01:54:43;;;;;;;11.25;9.30;;;18.70;99.90;;;;;;5132286;27;20064;-83
2023/09/09 01:57:29;;;;;;;13.60;8.35;;;18.70;99.90;;;;;;5132206;27;20450;-80
2023/09/09 02:00:15;;;;;;;13.80;7.88;;;18.60;99.90;;;;;;5133015;27;20134;-79
2023/09/09 02:03:01;;;;;;;11.73;8.65;;;18.60;99.90;;;;;;5133065;27;20135;-85
2023/09/09 02:05:47;;;;;;;12.52;9.23;;;18.60;99.90;;;;;;5132081;27;20051;-77
2023/09/09 02:08:33;;;;;;;14.40;8.77;;;18.60;99.90;;;;;;5132058;27;20470;-74
2023/09/09 02:11:19;;;;;;;11.30;8.32;;;18.50;99.90;;;;;;5113161;27;20080;-73
2023/09/09 02:14:05;;;;;;;11.43;8.57;;;18.50;99.90;;;;;;5131934;27;20567;-85
2023/09/09 02:16:51;;;;;;;9.48;7.70;;;18.50;99.90;;;;;;5131651;27;20050;-74
2023/09/09 02:19:37;;;;;;;11.35;9.27;;;18.50;99.90;;;;;;5131622;27;20078;-72
2023/09/09 02:22:24;;;;;;;11.48;8.30;;;18.50;99.90;;;;;;5131233;27;20604;-71
2023/09/09 02:25:10;;;;;;;13.30;10.25;;;18.50;99.90;;;;;;5131742;27;20133;-81
2023/09/09 02:27:56;;;;;;;12.25;8.13;;;18.40;99.90;;;;;;5132741;27;20079;-85
2023/09/09 02:30:45;;;;;;;13.75;9.75;;;18.40;99.90;;;;;;5132018;27;20051;-83
2023/09/09 02:33:31;;;;;;;12.73;9.20;;;18.40;99.90;;;;;;5116677;27;20082;-82
2023/09/09 02:36:17;;;;;;;12.70;9.70;;;18.40;99.90;;;;;;5112857;27;20050;-76
2023/09/09 02:39:03;;;;;;;13.38;9.73;;;18.40;99.90;;;;;;5131838;27;20047;-80
2023/09/09 02:41:49;;;;;;;12.70;9.80;;;18.30;99.90;;;;;;5116181;27;20559;-83
2023/09/09 02:44:35;;;;;;;17.00;11.65;;;18.30;99.90;;;;;;5113238;27;20097;-73
2023/09/09 02:47:21;;;;;;;15.23;11.60;;;18.30;99.90;;;;;;5113957;27;20043;-77
2023/09/09 02:50:07;;;;;;;16.75;12.00;;;18.30;99.90;;;;;;5130596;27;20047;-78
2023/09/09 02:52:53;;;;;;;13.43;9.38;;;18.20;99.90;;;;;;5113924;27;20047;-77
2023/09/09 02:55:39;;;;;;;15.07;10.10;;;18.20;99.90;;;;;;5135253;27;20058;-73
2023/09/09 02:58:25;;;;;;;13.75;10.32;;;18.20;99.90;;;;;;5099103;27;20086;-73
2023/09/09 03:01:11;;;;;;;12.70;9.48;;;18.20;99.90;;;;;;5112258;27;20565;-74
2023/09/09 03:03:57;;;;;;;12.35;9.10;;;18.20;99.90;;;;;;5112950;28;20051;-71
2023/09/09 03:06:45;;;;;;;11.40;8.70;;;18.20;99.90;;;;;;5116944;27;20051;-75
2023/09/09 03:09:32;;;;;;;16.58;9.85;;;18.10;99.90;;;;;;5130586;27;20043;-83
2023/09/09 03:12:20;;;;;;;13.85;11.07;;;18.10;99.90;;;;;;5132164;27;20054;-72
2023/09/09 03:15:07;;;;;;;14.88;10.57;;;18.10;99.90;;;;;;5131494;28;20047;-74
2023/09/09 03:17:53;;;;;;;15.30;11.32;;;18.10;99.90;;;;;;5119680;27;20441;-71
2023/09/09 03:20:39;;;;;;;15.77;10.77;;;18.00;99.90;;;;;;5139085;27;20123;-80
2023/09/09 03:23:25;;;;;;;15.68;11.63;;;18.00;99.90;;;;;;5138272;27;20107;-81
2023/09/09 03:26:18;;;;;;;16.48;11.93;;;18.00;99.90;;;;;;5119491;27;20050;-80
2023/09/09 03:29:04;;;;;;;15.07;11.20;;;18.00;99.90;;;;;;5137224;27;20528;-80
2023/09/09 03:31:50;;;;;;;18.90;16.05;;;18.00;99.90;;;;;;5137496;27;20043;-72
2023/09/09 03:34:36;;;;;;;20.48;15.80;;;18.00;99.90;;;;;;5139053;27;20180;-83
2023/09/09 03:37:22;;;;;;;23.15;15.82;;;18.00;99.90;;;;;;5140302;27;20086;-80
2023/09/09 03:40:09;;;;;;;23.58;16.58;;;18.00;99.90;;;;;;5138874;27;20055;-74
2023/09/09 03:42:55;;;;;;;25.70;19.38;;;18.00;99.90;;;;;;5120192;27;20466;-84
2023/09/09 03:45:41;;;;;;;25.00;18.00;;;18.00;99.90;;;;;;5105270;27;20046;-84
2023/09/09 03:48:27;;;;;;;23.83;18.30;;;18.00;99.90;;;;;;5123167;27;20418;-78
2023/09/09 03:51:14;;;;;;;25.23;20.60;;;18.00;99.90;;;;;;5119967;27;20070;-83
2023/09/09 03:54:00;;;;;;;27.75;21.23;;;18.00;99.90;;;;;;5138734;27;20087;-76
2023/09/09 03:56:46;;;;;;;30.15;21.85;;;18.00;99.90;;;;;;5137118;27;20043;-81
2023/09/09 03:59:33;;;;;;;25.70;18.15;;;17.90;99.90;;;;;;5136763;27;20510;-76
2023/09/09 04:02:19;;;;;;;26.75;19.13;;;18.00;99.90;;;;;;5122559;27;20086;-79
2023/09/09 04:05:07;;;;;;;23.65;17.65;;;17.90;99.90;;;;;;5137996;27;20039;-82
2023/09/09 04:07:53;;;;;;;22.70;18.58;;;17.90;99.90;;;;;;5138440;27;20051;-80
2023/09/09 04:10:39;;;;;;;24.17;19.02;;;17.90;99.90;;;;;;5119328;27;20562;-70
2023/09/09 04:13:25;;;;;;;24.88;19.60;;;17.90;99.90;;;;;;5105279;27;20116;-81
2023/09/09 04:16:11;;;;;;;32.70;23.40;;;17.90;99.90;;;;;;5118953;27;20138;-78
2023/09/09 04:18:57;;;;;;;27.27;21.38;;;17.80;99.90;;;;;;5118778;27;20055;-78
2023/09/09 04:21:43;;;;;;;23.95;18.77;;;17.80;99.90;;;;;;5118758;27;20138;-75
2023/09/09 04:24:29;;;;;;;24.70;19.60;;;17.80;99.90;;;;;;5105088;27;20081;-76
2023/09/09 04:27:15;;;;;;;27.50;21.65;;;17.80;99.90;;;;;;5136110;27;20054;-74
2023/09/09 04:30:01;;;;;;;30.13;22.08;;;17.80;99.90;;;;;;5116138;27;20051;-71
2023/09/09 04:32:47;;;;;;;24.60;20.00;;;17.80;99.90;;;;;;5134852;27;20047;-75
2023/09/09 04:35:33;;;;;;;21.83;17.77;;;17.80;99.90;;;;;;5134672;27;20047;-83
2023/09/09 04:38:21;;;;;;;23.65;19.40;;;17.80;99.90;;;;;;5133951;27;20059;-85
2023/09/09 04:41:07;;;;;;;24.95;19.75;;;17.80;99.90;;;;;;5115317;27;20502;-86
2023/09/09 04:43:53;;;;;;;29.42;22.35;;;17.80;99.90;;;;;;5134809;27;20149;-84
2023/09/09 04:46:39;;;;;;;31.42;23.77;;;17.70;99.90;;;;;;5133331;27;20486;-83
2023/09/09 04:49:25;;;;;;;30.13;24.63;;;17.70;99.90;;;;;;5114687;27;20051;-81
2023/09/09 04:52:11;;;;;;;30.13;22.58;;;17.70;99.90;;;;;;5116082;27;20047;-83
2023/09/09 04:54:57;;;;;;;23.70;17.45;;;17.70;99.90;;;;;;5134491;27;20047;-72
2023/09/09 04:57:43;;;;;;;26.52;20.40;;;17.70;99.90;;;;;;5116140;27;20057;-84
2023/09/09 05:00:29;;;;;;;24.88;19.13;;;17.70;99.90;;;;;;5134522;27;20051;-79
2023/09/09 05:03:15;;;;;;;23.65;17.58;;;17.60;99.90;;;;;;5132538;27;20047;-73
2023/09/09 05:06:02;;;;;;;22.50;18.80;;;17.60;99.90;;;;;;5134568;27;20050;-71
2023/09/09 05:08:48;;;;;;;25.95;20.58;;;17.60;99.90;;;;;;5132899;27;20084;-78
2023/09/09 05:11:34;;;;;;;20.58;16.85;;;17.60;99.90;;;;;;5114608;27;20100;-82
2023/09/09 05:14:20;;;;;;;24.65;18.35;;;17.50;99.90;;;;;;5134290;27;20076;-80
2023/09/09 05:17:06;;;;;;;23.65;17.42;;;17.50;99.90;;;;;;5134290;27;20398;-76
2023/09/09 05:19:52;;;;;;;24.23;18.20;;;17.60;99.90;;;;;;5133694;27;20526;-78
2023/09/09 05:22:38;;;;;;;25.65;17.33;;;17.50;99.90;;;;;;5117229;27;20554;-72
2023/09/09 05:25:25;;;;;;;19.35;14.20;;;17.50;99.90;;;;;;5118407;27;20058;-76
2023/09/09 05:28:11;;;;;;;17.77;13.45;;;17.60;99.90;;;;;;5141864;27;20049;-81
2023/09/09 05:30:57;;;;;;;15.00;12.55;;;17.60;99.90;;;;;;5134474;27;20047;-83
2023/09/09 05:33:43;;;;;;;17.23;13.68;;;17.50;99.90;;;;;;5113514;27;20085;-76
2023/09/09 05:36:30;;;;;;;18.33;14.25;;;17.50;99.90;;;;;;5136396;27;20051;-82
2023/09/09 05:39:17;;;;;;;12.77;10.82;;;17.50;99.90;;;;;;5137972;27;20062;-74
2023/09/09 05:42:05;;;;;;;17.58;14.40;;;17.60;99.90;;;;;;5137231;27;20182;-75
2023/09/09 05:44:51;;;;;;;13.43;11.98;;;17.60;99.90;;;;;;5119340;27;20047;-86
2023/09/09 05:47:37;;;;;;;18.20;14.88;;;17.70;99.90;;;;;;5132831;27;20055;-77
2023/09/09 05:50:24;;;;;;;20.27;18.02;;;17.70;99.90;;;;;;5100470;27;20055;-77
2023/09/09 05:53:10;;;;;;;18.60;15.55;;;17.80;99.90;;;;;;5133706;27;20133;-78
2023/09/09 05:55:56;;;;;;;24.33;19.30;;;17.80;99.90;;;;;;5132248;27;20051;-75
2023/09/09 05:58:42;;;;;;;23.50;18.50;;;17.90;99.90;;;;;;5115271;27;20104;-76
2023/09/09 06:01:28;;;;;;;19.63;16.20;;;17.90;99.90;;;;;;5113281;27;20096;-72
2023/09/09 06:04:18;;;;;;;20.45;17.35;;;17.90;99.90;;;;;;5131509;27;20419;-74
2023/09/09 06:07:04;;;;;;;24.23;19.30;;;18.00;99.90;;;;;;5132951;27;20062;-75
2023/09/09 06:09:50;;;;;;;22.38;18.55;;;18.10;99.90;;;;;;5114075;27;20055;-72
2023/09/09 06:12:37;;;;;;;25.13;20.55;;;18.10;99.90;;;;;;5114632;27;20086;-72
2023/09/09 06:15:23;;;;;;;28.73;23.20;;;18.20;99.90;;;;;;5132793;27;20134;-78
2023/09/09 06:18:09;;;;;;;30.00;24.95;;;18.30;99.90;;;;;;5113247;27;20541;-78
2023/09/09 06:20:55;;;;;;;33.20;28.33;;;18.30;99.90;;;;;;5133215;27;20118;-78
2023/09/09 06:23:42;;;;;;;30.42;25.25;;;18.40;99.90;;;;;;5132121;27;20091;-71
2023/09/09 06:26:33;;;;;;;34.38;27.88;;;18.50;99.90;;;;;;5101322;27;20042;-78
2023/09/09 06:29:20;;;;;;;45.03;37.35;;;18.60;99.90;;;;;;5133093;27;20066;-74
2023/09/09 06:32:09;;;;;;;47.10;41.40;;;18.80;99.90;;;;;;5119528;27;20043;-71
2023/09/09 06:34:56;;;;;;;46.05;38.63;;;18.90;99.90;;;;;;5119964;27;20490;-76
2023/09/09 06:37:42;;;;;;;45.00;38.75;;;19.00;99.90;;;;;;5141234;27;20062;-75
2023/09/09 06:40:31;;;;;;;51.40;43.50;;;19.20;99.90;;;;;;5136417;27;20047;-80
2023/09/09 06:43:21;;;;;;;49.03;39.05;;;19.30;99.90;;;;;;5134985;27;20076;-78
2023/09/09 06:46:07;;;;;;;52.72;43.15;;;19.50;99.90;;;;;;5134217;27;20111;-74
2023/09/09 06:48:53;;;;;;;53.13;45.67;;;19.70;99.90;;;;;;5132778;27;20071;-74
2023/09/09 06:51:39;;;;;;;49.65;43.15;;;19.80;99.90;;;;;;5132162;27;20040;-73
2023/09/09 06:54:26;;;;;;;49.67;43.03;;;19.90;99.90;;;;;;5116776;27;20055;-72
2023/09/09 06:57:12;;;;;;;46.00;41.05;;;20.10;99.90;;;;;;5132402;27;20058;-74
2023/09/09 06:59:58;;;;;;;42.30;36.30;;;20.20;99.90;;;;;;5100196;27;20047;-72
2023/09/09 07:02:44;;;;;;;49.00;40.65;;;20.30;99.90;;;;;;5115769;27;20069;-73
2023/09/09 07:05:31;;;;;;;48.08;41.35;;;20.40;99.90;;;;;;5131633;27;20145;-73
2023/09/09 07:08:17;;;;;;;46.90;40.47;;;20.50;99.90;;;;;;5130544;27;20043;-77
2023/09/09 07:11:04;;;;;;;46.72;39.58;;;20.70;99.90;;;;;;5115474;27;20055;-73
2023/09/09 07:13:50;;;;;;;50.03;43.20;;;20.80;99.90;;;;;;5113367;28;20054;-78
2023/09/09 07:16:36;;;;;;;52.38;43.72;;;20.90;99.90;;;;;;5116436;28;20055;-81
2023/09/09 07:19:22;;;;;;;55.20;42.78;;;21.00;99.90;;;;;;5131596;28;20049;-77
2023/09/09 07:22:08;;;;;;;53.58;42.40;;;21.10;99.90;;;;;;5115184;28;20119;-83
2023/09/09 07:24:54;;;;;;;51.45;39.78;;;21.10;99.90;;;;;;5131878;28;20043;-80
2023/09/09 07:27:40;;;;;;;46.88;38.58;;;21.20;99.90;;;;;;5099257;28;20058;-76
2023/09/09 07:30:27;;;;;;;47.40;39.45;;;21.30;99.90;;;;;;5131248;28;20058;-81
2023/09/09 07:33:13;;;;;;;45.90;37.97;;;21.50;99.90;;;;;;5131810;28;20402;-81
2023/09/09 07:35:59;;;;;;;51.30;40.78;;;21.60;99.90;;;;;;5131152;28;20051;-83
2023/09/09 07:38:45;;;;;;;41.78;35.10;;;21.70;99.90;;;;;;5131032;28;20047;-71
2023/09/09 07:41:31;;;;;;;50.55;38.38;;;21.80;99.90;;;;;;5113327;28;20080;-84
2023/09/09 07:44:17;;;;;;;51.15;40.05;;;22.00;99.90;;;;;;5131896;28;20047;-84
2023/09/09 07:47:06;;;;;;;51.55;42.35;;;22.10;99.90;;;;;;5099241;28;20043;-78
2023/09/09 07:49:53;;;;;;;53.80;41.97;;;22.30;99.90;;;;;;5111479;28;20051;-73
2023/09/09 07:52:39;;;;;;;58.95;44.22;;;22.40;99.90;;;;;;5131625;28;20036;-74
2023/09/09 07:55:25;;;;;;;50.00;39.55;;;22.50;99.90;;;;;;5131358;28;20051;-82
2023/09/09 07:58:11;;;;;;;61.33;48.72;;;22.60;99.90;;;;;;5115762;28;20054;-79
2023/09/09 08:01:05;;;;;;;63.30;50.25;;;22.80;99.90;;;;;;5131483;28;20142;-80
2023/09/09 08:03:51;;;;;;;60.47;47.95;;;22.90;99.90;;;;;;5132997;27;20127;-82
2023/09/09 08:06:37;;;;;;;69.88;52.30;;;23.00;99.90;;;;;;5135406;27;20051;-77
2023/09/09 08:09:23;;;;;;;70.72;56.95;;;23.00;99.90;;;;;;5112098;28;20056;-77
2023/09/09 08:12:10;;;;;;;83.88;63.65;;;23.10;99.90;;;;;;5113817;28;20050;-80
2023/09/09 08:15:07;;;;;;;84.97;64.35;;;23.20;99.90;;;;;;5113549;28;20052;-76
2023/09/09 08:17:53;;;;;;;83.35;65.78;;;23.40;99.90;;;;;;5113559;28;20055;-79
2023/09/09 08:20:39;;;;;;;79.60;62.17;;;23.50;99.90;;;;;;5113520;28;20044;-74
2023/09/09 08:23:25;;;;;;;73.25;59.30;;;23.60;99.90;;;;;;5112887;28;20050;-73
2023/09/09 08:26:12;;;;;;;75.43;60.88;;;23.70;99.90;;;;;;5111752;28;20083;-74
2023/09/09 08:28:58;;;;;;;73.53;57.42;;;23.90;99.90;;;;;;5114039;28;20121;-74
2023/09/09 08:31:47;;;;;;;78.82;62.95;;;24.00;99.90;;;;;;5113834;28;20051;-72
2023/09/09 08:34:34;;;;;;;80.60;62.75;;;24.10;99.90;;;;;;5112070;28;20069;-75
2023/09/09 08:37:20;;;;;;;71.82;57.42;;;24.30;99.90;;;;;;5112080;28;20529;-76
2023/09/09 08:40:08;;;;;;;69.05;54.38;;;24.50;99.90;;;;;;5113175;28;20048;-72
2023/09/09 08:43:08;;;;;;;66.80;53.38;;;24.80;99.90;;;;;;5113097;28;20150;-73
2023/09/09 08:46:11;;;;;;;69.88;55.38;;;25.00;99.90;;;;;;5111936;28;20083;-73
2023/09/09 08:48:59;;;;;;;74.40;59.72;;;25.20;99.90;;;;;;5099846;28;20054;-78
2023/09/09 08:52:01;;;;;;;63.33;49.78;;;25.30;99.90;;;;;;5114081;28;20044;-75
2023/09/09 08:54:48;;;;;;;68.38;52.55;;;25.40;99.90;;;;;;5112553;28;20131;-80
2023/09/09 08:57:34;;;;;;;70.60;54.83;;;25.50;99.90;;;;;;5112813;28;20433;-76
2023/09/09 09:00:21;;;;;;;66.07;49.78;;;25.50;99.90;;;;;;5112358;28;20051;-71
2023/09/09 09:03:08;;;;;;;59.63;46.67;;;25.40;99.90;;;;;;5112787;28;20125;-73
2023/09/09 09:05:54;;;;;;;60.92;48.22;;;25.50;99.90;;;;;;5110257;28;20055;-73
2023/09/09 09:08:41;;;;;;;61.45;46.10;;;25.50;99.90;;;;;;5112447;27;20052;-71
2023/09/09 09:11:28;;;;;;;59.22;48.03;;;25.70;99.90;;;;;;5133786;27;20549;-71
2023/09/09 09:14:14;;;;;;;59.88;44.95;;;25.60;99.90;;;;;;5133095;27;20051;-73
2023/09/09 09:17:01;;;;;;;54.45;44.45;;;25.70;99.90;;;;;;5133963;27;20062;-75
2023/09/09 09:19:47;;;;;;;56.30;47.55;;;25.80;99.90;;;;;;5132340;27;20426;-77
2023/09/09 09:22:34;;;;;;;57.35;46.50;;;25.90;99.90;;;;;;5132246;27;20128;-79
2023/09/09 09:25:21;;;;;;;54.88;43.40;;;25.90;99.90;;;;;;5115247;27;20042;-75
2023/09/09 09:28:07;;;;;;;56.95;45.88;;;25.80;99.90;;;;;;5136705;27;20047;-85
2023/09/09 09:30:53;;;;;;;59.33;45.72;;;25.80;99.90;;;;;;5136735;27;20039;-80
2023/09/09 09:33:39;;;;;;;56.15;45.35;;;25.90;99.90;;;;;;5100909;27;20050;-84
2023/09/09 09:36:26;;;;;;;58.58;46.13;;;26.00;99.90;;;;;;5132741;27;20051;-83
2023/09/09 09:39:15;;;;;;;56.78;45.35;;;26.10;99.90;;;;;;5132871;27;20479;-81
2023/09/09 09:42:02;;;;;;;57.53;45.17;;;26.20;99.90;;;;;;5133869;27;20502;-80
2023/09/09 09:44:48;;;;;;;50.40;41.08;;;26.20;99.90;;;;;;5133260;27;20047;-78
2023/09/09 09:47:47;;;;;;;54.85;42.72;;;26.20;99.90;;;;;;5132515;27;20395;-77
2023/09/09 09:50:34;;;;;;;57.55;44.83;;;26.30;99.90;;;;;;5132938;27;20134;-78
2023/09/09 09:53:20;;;;;;;49.92;40.92;;;26.50;99.90;;;;;;5133249;27;20529;-77
2023/09/09 09:56:06;;;;;;;44.10;34.42;;;26.40;99.90;;;;;;5131659;27;20144;-79
2023/09/09 09:58:54;;;;;;;45.78;35.55;;;26.60;99.90;;;;;;5114523;27;20047;-77
2023/09/09 10:01:40;;;;;;;39.92;33.83;;;26.80;99.90;;;;;;5132317;27;20054;-85
2023/09/09 10:04:30;;;;;;;46.42;37.10;;;26.90;99.90;;;;;;5113616;27;20134;-86
2023/09/09 10:07:19;;;;;;;41.83;34.25;;;27.00;99.90;;;;;;5114519;27;20047;-80
2023/09/09 10:10:10;;;;;;;35.03;29.55;;;27.30;99.90;;;;;;5132861;27;20050;-78
2023/09/09 10:13:41;;;;;;;37.60;30.73;;;27.40;99.90;;;;;;5135434;27;20050;-72
2023/09/09 10:16:29;;;;;;;32.00;27.10;;;27.30;99.90;;;;;;5048490;28;20135;-72
2023/09/09 10:19:16;;;;;;;28.08;23.50;;;27.60;99.90;;;;;;5117609;27;20146;-71
2023/09/09 10:22:06;;;;;;;25.10;20.40;;;27.70;99.60;;;;;;5132476;27;20199;-72
2023/09/09 10:24:53;;;;;;;29.58;21.80;;;28.20;99.20;;;;;;5132264;27;20138;-72
2023/09/09 10:27:41;;;;;;;26.17;20.27;;;28.40;98.50;;;;;;5131601;27;20047;-72
2023/09/09 10:30:27;;;;;;;23.20;16.83;;;28.50;97.70;;;;;;5113138;27;20067;-72
2023/09/09 10:33:14;;;;;;;16.25;12.85;;;28.50;97.10;;;;;;5131784;27;20051;-72
2023/09/09 10:36:02;;;;;;;24.88;18.02;;;28.50;96.60;;;;;;5131984;27;20100;-74
2023/09/09 10:38:49;;;;;;;17.25;14.70;;;28.50;96.50;;;;;;5099548;27;20049;-73
2023/09/09 10:41:36;;;;;;;16.00;10.23;;;28.50;95.60;;;;;;5131447;27;20448;-78
2023/09/09 10:44:22;;;;;;;13.90;10.80;;;28.40;95.00;;;;;;5132973;27;20085;-85
2023/09/09 10:47:09;;;;;;;15.40;10.88;;;28.60;94.40;;;;;;5135810;27;20043;-83
2023/09/09 10:50:04;;;;;;;10.45;7.22;;;28.90;93.30;;;;;;5135005;27;20058;-72
2023/09/09 10:53:19;;;;;;;10.98;7.50;;;29.00;92.30;;;;;;5113419;27;20055;-78
2023/09/09 10:56:11;;;;;;;16.08;10.90;;;29.10;92.10;;;;;;5130688;27;20551;-77
2023/09/09 10:58:57;;;;;;;16.48;11.77;;;29.60;92.40;;;;;;5112595;27;20055;-72
2023/09/09 11:01:43;;;;;;;16.33;12.52;;;29.70;92.30;;;;;;5131296;27;20096;-75
2023/09/09 11:04:30;;;;;;;20.50;16.67;;;29.50;92.80;;;;;;5116903;27;20039;-73
2023/09/09 11:07:16;;;;;;;17.77;15.30;;;29.90;93.00;;;;;;5113370;27;20050;-73
2023/09/09 11:10:03;;;;;;;18.65;14.57;;;30.40;92.00;;;;;;5131280;27;20097;-72
2023/09/09 11:12:52;;;;;;;20.77;14.20;;;30.80;91.40;;;;;;5131775;27;20134;-83
2023/09/09 11:15:51;;;;;;;14.15;11.95;;;30.90;91.50;;;;;;5116793;28;20047;-82
2023/09/09 11:18:37;;;;;;;24.08;17.55;;;31.70;91.20;;;;;;5135284;28;20043;-79
2023/09/09 11:21:24;;;;;;;25.58;20.58;;;31.90;90.80;;;;;;5131774;28;20055;-87
2023/09/09 11:24:11;;;;;;;20.05;15.60;;;31.80;90.70;;;;;;5132484;28;20043;-76
2023/09/09 11:26:58;;;;;;;16.30;13.05;;;32.00;90.20;;;;;;5117223;28;20081;-72
2023/09/09 11:29:51;;;;;;;15.48;12.57;;;32.40;90.10;;;;;;5131697;28;20405;-75
2023/09/09 11:32:37;;;;;;;17.13;12.35;;;32.60;87.00;;;;;;5131169;28;20047;-76
2023/09/09 11:35:23;;;;;;;16.10;11.93;;;32.80;87.80;;;;;;5116905;28;20055;-74
2023/09/09 11:38:13;;;;;;;11.98;10.00;;;32.90;86.80;;;;;;5132999;27;20498;-72
2023/09/09 11:40:59;;;;;;;11.65;9.25;;;33.30;85.30;;;;;;5135033;27;20043;-75
2023/09/09 11:43:56;;;;;;;13.15;9.35;;;33.30;85.80;;;;;;5117491;27;20051;-72
2023/09/09 11:46:44;;;;;;;10.23;8.63;;;33.50;84.20;;;;;;5135584;27;20051;-72
2023/09/09 11:49:30;;;;;;;10.95;7.88;;;33.70;84.00;;;;;;5116387;27;20062;-72
2023/09/09 11:52:21;;;;;;;8.77;6.95;;;33.70;82.40;;;;;;5117619;27;20058;-79
2023/09/09 11:55:07;;;;;;;14.90;8.38;;;34.00;81.60;;;;;;5137934;27;20051;-73
2023/09/09 11:57:55;;;;;;;8.88;6.68;;;34.10;79.90;;;;;;5136941;27;20079;-73
2023/09/09 12:00:41;;;;;;;9.88;7.45;;;34.20;79.20;;;;;;5102625;27;20511;-85
2023/09/09 12:03:27;;;;;;;11.95;8.23;;;34.30;78.50;;;;;;5116825;27;20054;-88
2023/09/09 12:06:14;;;;;;;12.65;8.10;;;34.50;77.50;;;;;;5135271;27;20484;-73
2023/09/09 12:09:01;;;;;;;7.75;5.85;;;34.30;77.60;;;;;;5116247;27;20051;-86
2023/09/09 12:11:48;;;;;;;10.15;6.72;;;34.60;77.40;;;;;;5116229;27;20047;-78
2023/09/09 12:14:34;;;;;;;10.38;5.55;;;35.10;76.50;;;;;;5135243;27;20056;-81
2023/09/09 12:17:21;;;;;;;12.93;9.05;;;35.50;76.00;;;;;;5135042;27;20453;-78
2023/09/09 12:20:10;;;;;;;12.73;7.85;;;35.70;73.70;;;;;;5134825;27;20050;-74
2023/09/09 12:22:56;;;;;;;11.95;7.57;;;35.90;73.70;;;;;;5115469;27;20051;-79
2023/09/09 12:25:42;;;;;;;12.45;10.50;;;36.00;73.40;;;;;;5134741;27;20043;-78
2023/09/09 12:28:28;;;;;;;12.13;8.57;;;36.40;73.10;;;;;;5135282;27;20050;-77
2023/09/09 12:31:14;;;;;;;10.05;7.65;;;36.20;72.70;;;;;;5133824;27;20491;-87
2023/09/09 12:34:00;;;;;;;8.18;6.43;;;36.00;72.20;;;;;;5133678;27;20565;-86
2023/09/09 12:36:48;;;;;;;9.30;4.80;;;36.60;71.90;;;;;;5134171;27;20062;-85
2023/09/09 12:39:34;;;;;;;8.57;6.05;;;36.90;70.10;;;;;;5134094;27;20051;-88
2023/09/09 12:42:22;;;;;;;8.82;6.10;;;37.60;68.70;;;;;;5115919;27;20051;-73
2023/09/09 12:45:12;;;;;;;11.90;7.25;;;37.80;67.30;;;;;;5115235;27;20039;-78
2023/09/09 12:48:09;;;;;;;8.85;6.25;;;37.90;66.90;;;;;;5119885;27;20054;-73
2023/09/09 12:50:55;;;;;;;9.15;5.80;;;38.30;65.40;;;;;;5119295;27;20439;-77
2023/09/09 12:53:41;;;;;;;8.63;6.20;;;38.70;65.20;;;;;;5133738;27;20082;-77
2023/09/09 12:56:27;;;;;;;7.63;5.38;;;38.90;63.90;;;;;;5135121;27;20043;-72
2023/09/09 12:59:13;;;;;;;8.77;5.40;;;39.20;62.30;;;;;;5133539;27;20096;-77
2023/09/09 13:01:59;;;;;;;9.25;5.28;;;39.60;61.60;;;;;;5133606;27;20058;-84
2023/09/09 13:04:45;;;;;;;7.97;4.72;;;40.00;60.10;;;;;;5133914;27;20047;-80
2023/09/09 13:07:31;;;;;;;12.30;5.63;;;40.20;59.10;;;;;;5116130;27;20055;-75
2023/09/09 13:10:18;;;;;;;7.68;5.47;;;40.30;58.50;;;;;;5114634;27;20083;-74
2023/09/09 13:13:04;;;;;;;9.60;4.95;;;40.50;57.90;;;;;;5133121;27;20047;-72
2023/09/09 13:15:53;;;;;;;6.75;4.63;;;41.00;58.20;;;;;;5132837;27;20055;-70
2023/09/09 13:18:39;;;;;;;8.52;5.43;;;41.30;57.30;;;;;;5133603;27;20473;-75
2023/09/09 13:21:25;;;;;;;7.35;5.25;;;41.70;56.30;;;;;;5133209;27;20055;-74
2023/09/09 13:24:11;;;;;;;8.15;5.88;;;41.90;55.40;;;;;;5115512;27;20055;-74
2023/09/09 13:26:57;;;;;;;8.45;5.78;;;41.60;54.80;;;;;;5134036;27;20043;-74
2023/09/09 13:29:43;;;;;;;7.00;4.43;;;41.80;54.90;;;;;;5133325;27;20074;-71
2023/09/09 13:32:29;;;;;;;6.15;4.55;;;42.00;55.40;;;;;;5132698;27;20065;-74
2023/09/09 13:35:15;;;;;;;9.20;7.07;;;41.60;54.90;;;;;;5115516;27;20104;-70
2023/09/09 13:38:04;;;;;;;8.98;6.10;;;42.00;54.30;;;;;;5133106;27;20055;-80
2023/09/09 13:40:50;;;;;;;8.98;6.60;;;42.20;54.10;;;;;;5133906;27;20043;-76
2023/09/09 13:43:36;;;;;;;7.07;5.68;;;42.10;54.00;;;;;;5133639;27;20043;-76
2023/09/09 13:46:22;;;;;;;6.97;5.45;;;42.10;54.40;;;;;;5116545;27;20059;-73
2023/09/09 13:49:08;;;;;;;11.75;6.40;;;42.00;54.40;;;;;;5114611;27;20047;-82
2023/09/09 13:51:54;;;;;;;7.30;5.78;;;42.30;53.70;;;;;;5133345;27;20145;-75
2023/09/09 13:54:40;;;;;;;9.23;6.40;;;41.90;53.70;;;;;;5134404;27;20418;-80
2023/09/09 13:57:26;;;;;;;8.77;5.88;;;41.90;53.50;;;;;;5137886;27;20051;-75
2023/09/09 14:00:15;;;;;;;9.18;7.10;;;41.80;53.60;;;;;;5119991;28;20115;-73
2023/09/09 14:03:01;;;;;;;8.40;6.43;;;41.70;53.10;;;;;;5133518;27;20050;-81
2023/09/09 14:05:47;;;;;;;9.27;6.22;;;41.90;53.60;;;;;;5137418;27;20047;-74
2023/09/09 14:08:33;;;;;;;7.07;5.57;;;42.10;52.70;;;;;;5122987;27;20103;-76
2023/09/09 14:11:19;;;;;;;8.85;6.82;;;41.90;52.30;;;;;;5139089;27;20046;-82
2023/09/09 14:14:05;;;;;;;9.15;6.32;;;41.70;51.80;;;;;;5136625;27;20541;-77